sensor_id;sensor_type;location;lat;lon;timestamp;pressure;altitude;pressure_sealevel;temperature;humidity
19553;BME280;9420;50.876;7.012;2023-02-19T00:01:21;101435.00;;;17.55;100.00
19553;BME280;9420;50.876;7.012;2023-02-19T00:03:51;101441.72;;;17.43;100.00
19553;BME280;9420;50.876;7.012;2023-02-19T00:06:20;101429.81;;;17.70;100.00
19553;BME280;9420;50.876;7.012;2023-02-19T00:08:48;101424.75;;;17.83;100.00
19553;BME280;9420;50.876;7.012;2023-02-19T00:11:18;101418.91;;;18.29;100.00
19553;BME280;9420;50.876;7.012;2023-02-19T00:13:48;101420.31;;;17.65;100.00
19553;BME280;9420;50.876;7.012;2023-02-19T00:16:20;101425.06;;;17.77;100.00
19553;BME280;9420;50.876;7.012;2023-02-19T00:18:48;101426.22;;;17.53;100.00
19553;BME280;9420;50.876;7.012;2023-02-19T00:21:16;101418.81;;;17.78;100.00
19553;BME280;9420;50.876;7.012;2023-02-19T00:23:48;101413.13;;;17.67;100.00
19553;BME280;9420;50.876;7.012;2023-02-19T00:26:15;101419.44;;;17.83;100.00
19553;BME280;9420;50.876;7.012;2023-02-19T00:28:43;101422.19;;;17.81;100.00
19553;BME280;9420;50.876;7.012;2023-02-19T00:31:16;101404.72;;;20.23;100.00
19553;BME280;9420;50.876;7.012;2023-02-19T00:33:46;101422.13;;;18.00;100.00
19553;BME280;9420;50.876;7.012;2023-02-19T00:36:14;101414.38;;;17.39;100.00
19553;BME280;9420;50.876;7.012;2023-02-19T00:38:43;101414.97;;;17.83;100.00
19553;BME280;9420;50.876;7.012;2023-02-19T00:41:12;101410.94;;;16.99;100.00
19553;BME280;9420;50.876;7.012;2023-02-19T00:43:48;101416.97;;;17.97;100.00
19553;BME280;9420;50.876;7.012;2023-02-19T00:46:17;101406.81;;;17.49;100.00
19553;BME280;9420;50.876;7.012;2023-02-19T00:48:46;101404.56;;;17.96;100.00
19553;BME280;9420;50.876;7.012;2023-02-19T00:51:14;101410.00;;;17.94;100.00
19553;BME280;9420;50.876;7.012;2023-02-19T00:53:42;101400.13;;;17.96;100.00
19553;BME280;9420;50.876;7.012;2023-02-19T00:56:09;101390.91;;;17.85;100.00
19553;BME280;9420;50.876;7.012;2023-02-19T00:58:37;101406.22;;;17.63;100.00
19553;BME280;9420;50.876;7.012;2023-02-19T01:01:05;101407.09;;;17.24;100.00
19553;BME280;9420;50.876;7.012;2023-02-19T01:03:32;101392.00;;;17.43;100.00
19553;BME280;9420;50.876;7.012;2023-02-19T01:06:03;101398.09;;;16.90;100.00
19553;BME280;9420;50.876;7.012;2023-02-19T01:08:31;101373.66;;;17.37;100.00
19553;BME280;9420;50.876;7.012;2023-02-19T01:10:59;101381.88;;;17.33;100.00
19553;BME280;9420;50.876;7.012;2023-02-19T01:13:27;101385.53;;;17.30;100.00
19553;BME280;9420;50.876;7.012;2023-02-19T01:16:02;101375.75;;;17.12;100.00
19553;BME280;9420;50.876;7.012;2023-02-19T01:18:30;101392.44;;;17.34;100.00
19553;BME280;9420;50.876;7.012;2023-02-19T01:20:58;101401.69;;;17.26;100.00
19553;BME280;9420;50.876;7.012;2023-02-19T01:23:26;101384.97;;;17.42;100.00
19553;BME280;9420;50.876;7.012;2023-02-19T01:25:53;101380.69;;;17.20;100.00
19553;BME280;9420;50.876;7.012;2023-02-19T01:28:20;101375.97;;;17.26;100.00
19553;BME280;9420;50.876;7.012;2023-02-19T01:30:48;101374.25;;;17.63;100.00
19553;BME280;9420;50.876;7.012;2023-02-19T01:33:15;101387.56;;;17.25;100.00
19553;BME280;9420;50.876;7.012;2023-02-19T01:35:42;101374.09;;;17.28;100.00
19553;BME280;9420;50.876;7.012;2023-02-19T01:38:10;101363.84;;;18.11;100.00
19553;BME280;9420;50.876;7.012;2023-02-19T01:40:38;101375.19;;;17.62;100.00
19553;BME280;9420;50.876;7.012;2023-02-19T01:43:14;101381.38;;;16.86;100.00
19553;BME280;9420;50.876;7.012;2023-02-19T01:45:43;101386.50;;;17.09;100.00
19553;BME280;9420;50.876;7.012;2023-02-19T01:48:14;101376.25;;;17.58;100.00
19553;BME280;9420;50.876;7.012;2023-02-19T01:50:48;101372.22;;;18.89;100.00
19553;BME280;9420;50.876;7.012;2023-02-19T01:53:20;101374.09;;;17.28;100.00
19553;BME280;9420;50.876;7.012;2023-02-19T01:55:54;101371.50;;;17.45;100.00
19553;BME280;9420;50.876;7.012;2023-02-19T01:58:25;101378.69;;;17.25;100.00
19553;BME280;9420;50.876;7.012;2023-02-19T02:00:54;101374.66;;;17.35;100.00
19553;BME280;9420;50.876;7.012;2023-02-19T02:03:22;101382.16;;;17.45;100.00
19553;BME280;9420;50.876;7.012;2023-02-19T02:05:55;101383.31;;;17.77;100.00
19553;BME280;9420;50.876;7.012;2023-02-19T02:08:27;101369.78;;;17.44;100.00
19553;BME280;9420;50.876;7.012;2023-02-19T02:11:14;101389.06;;;17.31;100.00
19553;BME280;9420;50.876;7.012;2023-02-19T02:13:42;101380.88;;;17.17;100.00
19553;BME280;9420;50.876;7.012;2023-02-19T02:16:22;101373.16;;;17.48;100.00
19553;BME280;9420;50.876;7.012;2023-02-19T02:19:00;101369.16;;;16.82;100.00
19553;BME280;9420;50.876;7.012;2023-02-19T02:22:00;101381.16;;;17.67;100.00
19553;BME280;9420;50.876;7.012;2023-02-19T02:25:02;101373.66;;;17.19;100.00
19553;BME280;9420;50.876;7.012;2023-02-19T02:27:58;101372.38;;;17.09;100.00
19553;BME280;9420;50.876;7.012;2023-02-19T02:30:38;101367.16;;;17.63;100.00
19553;BME280;9420;50.876;7.012;2023-02-19T02:33:20;101379.78;;;17.39;100.00
19553;BME280;9420;50.876;7.012;2023-02-19T02:35:58;101378.22;;;17.54;100.00
19553;BME280;9420;50.876;7.012;2023-02-19T02:38:40;101376.44;;;17.55;100.00
19553;BME280;9420;50.876;7.012;2023-02-19T02:41:10;101372.38;;;17.09;100.00
19553;BME280;9420;50.876;7.012;2023-02-19T02:43:38;101367.94;;;18.01;100.00
19553;BME280;9420;50.876;7.012;2023-02-19T02:46:10;101366.75;;;17.71;100.00
19553;BME280;9420;50.876;7.012;2023-02-19T02:48:42;101368.13;;;17.23;100.00
19553;BME280;9420;50.876;7.012;2023-02-19T02:51:17;101368.75;;;17.47;100.00
19553;BME280;9420;50.876;7.012;2023-02-19T02:53:52;101364.91;;;17.35;100.00
19553;BME280;9420;50.876;7.012;2023-02-19T02:56:39;101377.22;;;16.99;100.00
19553;BME280;9420;50.876;7.012;2023-02-19T02:59:10;101367.34;;;17.21;100.00
19553;BME280;9420;50.876;7.012;2023-02-19T03:01:44;101363.88;;;17.38;100.00
19553;BME280;9420;50.876;7.012;2023-02-19T03:04:36;101368.91;;;17.44;100.00
19553;BME280;9420;50.876;7.012;2023-02-19T03:07:32;101367.75;;;17.12;100.00
19553;BME280;9420;50.876;7.012;2023-02-19T03:10:05;101371.00;;;17.00;100.00
19553;BME280;9420;50.876;7.012;2023-02-19T03:12:36;101374.47;;;16.82;100.00
19553;BME280;9420;50.876;7.012;2023-02-19T03:15:27;101379.66;;;16.85;100.00
19553;BME280;9420;50.876;7.012;2023-02-19T03:18:17;101378.13;;;17.18;100.00
19553;BME280;9420;50.876;7.012;2023-02-19T03:21:05;101383.72;;;17.12;100.00
19553;BME280;9420;50.876;7.012;2023-02-19T03:23:34;101381.84;;;17.14;100.00
19553;BME280;9420;50.876;7.012;2023-02-19T03:26:20;101394.47;;;17.29;100.00
19553;BME280;9420;50.876;7.012;2023-02-19T03:28:51;101396.97;;;17.32;100.00
19553;BME280;9420;50.876;7.012;2023-02-19T03:31:39;101389.75;;;17.34;100.00
19553;BME280;9420;50.876;7.012;2023-02-19T03:34:13;101397.28;;;17.64;100.00
19553;BME280;9420;50.876;7.012;2023-02-19T03:36:45;101398.09;;;17.08;100.00
19553;BME280;9420;50.876;7.012;2023-02-19T03:39:19;101402.41;;;16.92;100.00
19553;BME280;9420;50.876;7.012;2023-02-19T03:41:57;101401.78;;;17.24;100.00
19553;BME280;9420;50.876;7.012;2023-02-19T03:44:37;101411.78;;;17.19;100.00
19553;BME280;9420;50.876;7.012;2023-02-19T03:47:14;101412.25;;;16.90;100.00
19553;BME280;9420;50.876;7.012;2023-02-19T03:49:50;101418.41;;;17.11;100.00
19553;BME280;9420;50.876;7.012;2023-02-19T03:52:31;101416.22;;;17.00;100.00
19553;BME280;9420;50.876;7.012;2023-02-19T03:55:07;101416.53;;;17.31;100.00
19553;BME280;9420;50.876;7.012;2023-02-19T03:57:46;101414.41;;;17.58;100.00
19553;BME280;9420;50.876;7.012;2023-02-19T04:00:19;101418.16;;;16.77;100.00
19553;BME280;9420;50.876;7.012;2023-02-19T04:02:52;101421.38;;;17.23;100.00
19553;BME280;9420;50.876;7.012;2023-02-19T04:05:52;101419.19;;;16.93;100.00
19553;BME280;9420;50.876;7.012;2023-02-19T04:08:23;101424.81;;;17.44;100.00
19553;BME280;9420;50.876;7.012;2023-02-19T04:10:53;101434.66;;;17.23;100.00
19553;BME280;9420;50.876;7.012;2023-02-19T04:13:26;101426.66;;;16.85;100.00
19553;BME280;9420;50.876;7.012;2023-02-19T04:15:59;101436.19;;;16.90;100.00
19553;BME280;9420;50.876;7.012;2023-02-19T04:18:33;101450.81;;;17.00;100.00
19553;BME280;9420;50.876;7.012;2023-02-19T04:21:05;101442.72;;;16.63;100.00
19553;BME280;9420;50.876;7.012;2023-02-19T04:23:37;101446.66;;;16.53;100.00
19553;BME280;9420;50.876;7.012;2023-02-19T04:26:07;101428.44;;;17.04;100.00
19553;BME280;9420;50.876;7.012;2023-02-19T04:28:34;101444.81;;;16.95;100.00
19553;BME280;9420;50.876;7.012;2023-02-19T04:31:03;101449.63;;;16.67;100.00
19553;BME280;9420;50.876;7.012;2023-02-19T04:33:31;101451.75;;;16.79;100.00
19553;BME280;9420;50.876;7.012;2023-02-19T04:35:58;101456.28;;;16.77;100.00
19553;BME280;9420;50.876;7.012;2023-02-19T04:38:26;101465.81;;;16.61;100.00
19553;BME280;9420;50.876;7.012;2023-02-19T04:40:53;101467.44;;;16.65;100.00
19553;BME280;9420;50.876;7.012;2023-02-19T04:43:20;101466.91;;;16.77;100.00
19553;BME280;9420;50.876;7.012;2023-02-19T04:45:47;101477.13;;;16.86;100.00
19553;BME280;9420;50.876;7.012;2023-02-19T04:48:14;101479.78;;;17.06;100.00
19553;BME280;9420;50.876;7.012;2023-02-19T04:50:41;101475.88;;;17.54;100.00
19553;BME280;9420;50.876;7.012;2023-02-19T04:53:08;101479.16;;;17.20;100.00
19553;BME280;9420;50.876;7.012;2023-02-19T04:55:38;101479.00;;;16.84;100.00
19553;BME280;9420;50.876;7.012;2023-02-19T04:58:05;101476.28;;;17.44;100.00
19553;BME280;9420;50.876;7.012;2023-02-19T05:00:32;101479.78;;;17.06;100.00
19553;BME280;9420;50.876;7.012;2023-02-19T05:02:59;101481.50;;;17.27;100.00
19553;BME280;9420;50.876;7.012;2023-02-19T05:05:26;101483.41;;;16.65;100.00
19553;BME280;9420;50.876;7.012;2023-02-19T05:07:53;101488.94;;;16.59;100.00
19553;BME280;9420;50.876;7.012;2023-02-19T05:10:21;101486.50;;;16.95;100.00
19553;BME280;9420;50.876;7.012;2023-02-19T05:12:49;101498.19;;;16.49;100.00
19553;BME280;9420;50.876;7.012;2023-02-19T05:15:17;101497.22;;;16.73;100.00
19553;BME280;9420;50.876;7.012;2023-02-19T05:17:44;101490.78;;;16.57;100.00
19553;BME280;9420;50.876;7.012;2023-02-19T05:20:11;101483.69;;;16.36;100.00
19553;BME280;9420;50.876;7.012;2023-02-19T05:22:38;101491.91;;;16.30;100.00
19553;BME280;9420;50.876;7.012;2023-02-19T05:25:06;101498.22;;;16.71;100.00
19553;BME280;9420;50.876;7.012;2023-02-19T05:27:33;101499.72;;;16.56;100.00
19553;BME280;9420;50.876;7.012;2023-02-19T05:30:01;101497.31;;;16.50;100.00
19553;BME280;9420;50.876;7.012;2023-02-19T05:32:28;101503.97;;;16.17;100.00
19553;BME280;9420;50.876;7.012;2023-02-19T05:34:55;101508.91;;;16.26;100.00
19553;BME280;9420;50.876;7.012;2023-02-19T05:37:22;101511.81;;;16.41;100.00
19553;BME280;9420;50.876;7.012;2023-02-19T05:39:49;101521.31;;;16.47;100.00
19553;BME280;9420;50.876;7.012;2023-02-19T05:42:16;101523.91;;;16.50;100.00
19553;BME280;9420;50.876;7.012;2023-02-19T05:44:43;101533.94;;;17.25;100.00
19553;BME280;9420;50.876;7.012;2023-02-19T05:47:12;101542.09;;;16.16;100.00
19553;BME280;9420;50.876;7.012;2023-02-19T05:49:39;101542.09;;;16.16;100.00
19553;BME280;9420;50.876;7.012;2023-02-19T05:52:06;101539.84;;;16.05;100.00
19553;BME280;9420;50.876;7.012;2023-02-19T05:54:33;101551.72;;;16.63;100.00
19553;BME280;9420;50.876;7.012;2023-02-19T05:57:00;101550.03;;;17.22;100.00
19553;BME280;9420;50.876;7.012;2023-02-19T05:59:27;101544.91;;;16.78;100.00
19553;BME280;9420;50.876;7.012;2023-02-19T06:01:54;101549.44;;;16.96;100.00
19553;BME280;9420;50.876;7.012;2023-02-19T06:04:24;101554.41;;;17.03;100.00
19553;BME280;9420;50.876;7.012;2023-02-19T06:06:51;101574.72;;;16.19;100.00
19553;BME280;9420;50.876;7.012;2023-02-19T06:09:18;101564.53;;;16.74;100.00
19553;BME280;9420;50.876;7.012;2023-02-19T06:11:45;101562.19;;;16.23;100.00
19553;BME280;9420;50.876;7.012;2023-02-19T06:14:13;101565.94;;;16.17;100.00
19553;BME280;9420;50.876;7.012;2023-02-19T06:16:40;101560.31;;;16.46;100.00
19553;BME280;9420;50.876;7.012;2023-02-19T06:19:07;101554.25;;;16.66;100.00
19553;BME280;9420;50.876;7.012;2023-02-19T06:21:35;101570.06;;;15.79;100.00
19553;BME280;9420;50.876;7.012;2023-02-19T06:24:07;101568.66;;;16.16;100.00
19553;BME280;9420;50.876;7.012;2023-02-19T06:26:35;101573.88;;;16.19;100.00
19553;BME280;9420;50.876;7.012;2023-02-19T06:29:02;101584.00;;;16.31;100.00
19553;BME280;9420;50.876;7.012;2023-02-19T06:31:29;101582.75;;;15.71;100.00
19553;BME280;9420;50.876;7.012;2023-02-19T06:33:56;101580.00;;;15.74;100.00
19553;BME280;9420;50.876;7.012;2023-02-19T06:36:24;101589.94;;;15.93;100.00
19553;BME280;9420;50.876;7.012;2023-02-19T06:38:52;101580.69;;;16.03;100.00
19553;BME280;9420;50.876;7.012;2023-02-19T06:41:19;101580.69;;;16.03;100.00
19553;BME280;9420;50.876;7.012;2023-02-19T06:43:46;101593.84;;;16.06;100.00
19553;BME280;9420;50.876;7.012;2023-02-19T06:46:14;101587.56;;;16.08;100.00
19553;BME280;9420;50.876;7.012;2023-02-19T06:48:43;101584.75;;;16.13;100.00
19553;BME280;9420;50.876;7.012;2023-02-19T06:51:12;101590.16;;;16.10;100.00
19553;BME280;9420;50.876;7.012;2023-02-19T06:53:39;101600.03;;;16.06;100.00
19553;BME280;9420;50.876;7.012;2023-02-19T06:56:23;101599.59;;;16.63;100.00
19553;BME280;9420;50.876;7.012;2023-02-19T06:58:52;101603.44;;;16.76;100.00
19553;BME280;9420;50.876;7.012;2023-02-19T07:01:20;101601.38;;;16.62;100.00
19553;BME280;9420;50.876;7.012;2023-02-19T07:03:47;101605.94;;;16.59;100.00
19553;BME280;9420;50.876;7.012;2023-02-19T07:06:15;101600.75;;;16.56;100.00
19553;BME280;9420;50.876;7.012;2023-02-19T07:08:42;101610.25;;;16.40;100.00
19553;BME280;9420;50.876;7.012;2023-02-19T07:11:11;101615.28;;;16.24;100.00
19553;BME280;9420;50.876;7.012;2023-02-19T07:13:38;101623.41;;;16.20;100.00
19553;BME280;9420;50.876;7.012;2023-02-19T07:16:07;101630.72;;;16.36;100.00
19553;BME280;9420;50.876;7.012;2023-02-19T07:18:36;101643.41;;;16.96;100.00
19553;BME280;9420;50.876;7.012;2023-02-19T07:21:06;101633.59;;;17.18;100.00
19553;BME280;9420;50.876;7.012;2023-02-19T07:23:34;101647.72;;;16.55;100.00
19553;BME280;9420;50.876;7.012;2023-02-19T07:26:01;101650.22;;;16.82;100.00
19553;BME280;9420;50.876;7.012;2023-02-19T07:28:30;101653.59;;;17.89;100.00
19553;BME280;9420;50.876;7.012;2023-02-19T07:31:00;101660.41;;;17.56;100.00
19553;BME280;9420;50.876;7.012;2023-02-19T07:33:27;101666.94;;;17.07;100.00
19553;BME280;9420;50.876;7.012;2023-02-19T07:35:55;101668.72;;;17.06;100.00
19553;BME280;9420;50.876;7.012;2023-02-19T07:38:24;101673.91;;;17.51;100.00
19553;BME280;9420;50.876;7.012;2023-02-19T07:40:53;101674.22;;;17.23;100.00
19553;BME280;9420;50.876;7.012;2023-02-19T07:43:21;101679.53;;;17.43;100.00
19553;BME280;9420;50.876;7.012;2023-02-19T07:45:49;101680.69;;;17.16;100.00
19553;BME280;9420;50.876;7.012;2023-02-19T07:48:17;101692.41;;;16.91;100.00
19553;BME280;9420;50.876;7.012;2023-02-19T07:50:50;101702.75;;;16.98;100.00
19553;BME280;9420;50.876;7.012;2023-02-19T07:53:18;101702.16;;;17.33;100.00
19553;BME280;9420;50.876;7.012;2023-02-19T07:55:45;101704.94;;;16.65;100.00
19553;BME280;9420;50.876;7.012;2023-02-19T07:58:13;101701.75;;;17.22;100.00
19553;BME280;9420;50.876;7.012;2023-02-19T08:00:40;101711.03;;;17.12;100.00
19553;BME280;9420;50.876;7.012;2023-02-19T08:03:09;101712.78;;;16.92;100.00
19553;BME280;9420;50.876;7.012;2023-02-19T08:05:38;101712.47;;;16.78;100.00
19553;BME280;9420;50.876;7.012;2023-02-19T08:08:08;101722.03;;;16.12;100.00
19553;BME280;9420;50.876;7.012;2023-02-19T08:10:36;101725.41;;;16.63;100.00
19553;BME280;9420;50.876;7.012;2023-02-19T08:13:21;101721.75;;;16.43;100.00
19553;BME280;9420;50.876;7.012;2023-02-19T08:15:52;101734.00;;;16.47;100.00
19553;BME280;9420;50.876;7.012;2023-02-19T08:18:25;101730.44;;;16.48;100.00
19553;BME280;9420;50.876;7.012;2023-02-19T08:20:54;101740.50;;;16.63;100.00
19553;BME280;9420;50.876;7.012;2023-02-19T08:23:22;101737.94;;;16.83;100.00
19553;BME280;9420;50.876;7.012;2023-02-19T08:25:51;101737.28;;;17.21;100.00
19553;BME280;9420;50.876;7.012;2023-02-19T08:28:19;101753.44;;;16.72;100.00
19553;BME280;9420;50.876;7.012;2023-02-19T08:30:47;101743.69;;;17.37;100.00
19553;BME280;9420;50.876;7.012;2023-02-19T08:33:16;101742.72;;;16.52;100.00
19553;BME280;9420;50.876;7.012;2023-02-19T08:35:46;101751.19;;;17.06;100.00
19553;BME280;9420;50.876;7.012;2023-02-19T08:38:14;101754.78;;;17.48;100.00
19553;BME280;9420;50.876;7.012;2023-02-19T08:40:42;101768.91;;;17.29;100.00
19553;BME280;9420;50.876;7.012;2023-02-19T08:43:12;101766.28;;;17.71;100.00
19553;BME280;9420;50.876;7.012;2023-02-19T08:45:41;101756.00;;;18.42;100.00
19553;BME280;9420;50.876;7.012;2023-02-19T08:48:10;101762.28;;;17.81;100.00
19553;BME280;9420;50.876;7.012;2023-02-19T08:50:38;101772.03;;;18.02;100.00
19553;BME280;9420;50.876;7.012;2023-02-19T08:53:06;101774.53;;;17.85;100.00
19553;BME280;9420;50.876;7.012;2023-02-19T08:55:36;101771.38;;;16.90;100.00
19553;BME280;9420;50.876;7.012;2023-02-19T08:58:04;101778.75;;;17.48;100.00
19553;BME280;9420;50.876;7.012;2023-02-19T09:00:36;101786.69;;;17.50;100.00
19553;BME280;9420;50.876;7.012;2023-02-19T09:03:03;101781.72;;;17.63;100.00
19553;BME280;9420;50.876;7.012;2023-02-19T09:05:30;101773.34;;;17.28;100.00
19553;BME280;9420;50.876;7.012;2023-02-19T09:07:58;101771.63;;;17.06;100.00
19553;BME280;9420;50.876;7.012;2023-02-19T09:10:26;101775.97;;;17.30;100.00
19553;BME280;9420;50.876;7.012;2023-02-19T09:12:53;101788.59;;;17.46;100.00
19553;BME280;9420;50.876;7.012;2023-02-19T09:15:20;101777.25;;;18.05;100.00
19553;BME280;9420;50.876;7.012;2023-02-19T09:17:50;101787.56;;;17.51;100.00
19553;BME280;9420;50.876;7.012;2023-02-19T09:20:18;101779.19;;;17.38;100.00
19553;BME280;9420;50.876;7.012;2023-02-19T09:22:45;101788.81;;;16.74;100.00
19553;BME280;9420;50.876;7.012;2023-02-19T09:25:12;101782.78;;;17.59;100.00
19553;BME280;9420;50.876;7.012;2023-02-19T09:27:43;101784.69;;;17.97;100.00
19553;BME280;9420;50.876;7.012;2023-02-19T09:30:10;101792.41;;;18.23;100.00
19553;BME280;9420;50.876;7.012;2023-02-19T09:32:38;101799.81;;;17.96;100.00
19553;BME280;9420;50.876;7.012;2023-02-19T09:35:06;101799.47;;;18.04;100.00
19553;BME280;9420;50.876;7.012;2023-02-19T09:37:33;101808.22;;;16.99;100.00
19553;BME280;9420;50.876;7.012;2023-02-19T09:40:00;101801.94;;;17.45;100.00
19553;BME280;9420;50.876;7.012;2023-02-19T09:42:30;101807.09;;;17.28;100.00
19553;BME280;9420;50.876;7.012;2023-02-19T09:45:03;101800.28;;;18.06;100.00
19553;BME280;9420;50.876;7.012;2023-02-19T09:47:32;101806.25;;;18.31;100.00
19553;BME280;9420;50.876;7.012;2023-02-19T09:50:05;101808.41;;;17.39;100.00
19553;BME280;9420;50.876;7.012;2023-02-19T09:52:39;101829.28;;;17.05;100.00
19553;BME280;9420;50.876;7.012;2023-02-19T09:55:16;101831.44;;;17.40;100.00
19553;BME280;9420;50.876;7.012;2023-02-19T09:57:47;101836.59;;;16.77;100.00
19553;BME280;9420;50.876;7.012;2023-02-19T10:00:23;101832.75;;;17.07;100.00
19553;BME280;9420;50.876;7.012;2023-02-19T10:02:56;101841.31;;;17.37;100.00
19553;BME280;9420;50.876;7.012;2023-02-19T10:05:26;101849.88;;;17.23;100.00
19553;BME280;9420;50.876;7.012;2023-02-19T10:07:55;101849.09;;;16.98;100.00
19553;BME280;9420;50.876;7.012;2023-02-19T10:10:30;101844.84;;;17.82;100.00
19553;BME280;9420;50.876;7.012;2023-02-19T10:13:16;101833.38;;;17.59;100.00
19553;BME280;9420;50.876;7.012;2023-02-19T10:15:49;101850.28;;;16.90;100.00
19553;BME280;9420;50.876;7.012;2023-02-19T10:18:21;101850.88;;;16.75;100.00
19553;BME280;9420;50.876;7.012;2023-02-19T10:20:51;101843.03;;;17.16;100.00
19553;BME280;9420;50.876;7.012;2023-02-19T10:23:19;101855.50;;;17.61;100.00
19553;BME280;9420;50.876;7.012;2023-02-19T10:25:52;101859.00;;;17.16;100.00
19553;BME280;9420;50.876;7.012;2023-02-19T10:28:27;101864.31;;;17.39;100.00
19553;BME280;9420;50.876;7.012;2023-02-19T10:31:00;101872.13;;;18.29;100.00
19553;BME280;9420;50.876;7.012;2023-02-19T10:33:28;101882.50;;;17.52;100.00
19553;BME280;9420;50.876;7.012;2023-02-19T10:35:57;101894.88;;;17.53;100.00
19553;BME280;9420;50.876;7.012;2023-02-19T10:38:28;101882.63;;;17.92;100.00
19553;BME280;9420;50.876;7.012;2023-02-19T10:41:02;101887.31;;;17.64;100.00
19553;BME280;9420;50.876;7.012;2023-02-19T10:43:34;101879.25;;;17.87;100.00
19553;BME280;9420;50.876;7.012;2023-02-19T10:46:15;101890.06;;;17.84;100.00
19553;BME280;9420;50.876;7.012;2023-02-19T10:48:49;101902.38;;;17.41;100.00
19553;BME280;9420;50.876;7.012;2023-02-19T10:51:19;101912.53;;;17.32;100.00
19553;BME280;9420;50.876;7.012;2023-02-19T10:53:50;101915.97;;;17.80;100.00
19553;BME280;9420;50.876;7.012;2023-02-19T10:56:25;101924.00;;;17.57;100.00
19553;BME280;9420;50.876;7.012;2023-02-19T10:58:52;101927.28;;;17.40;100.00
19553;BME280;9420;50.876;7.012;2023-02-19T11:01:23;101943.03;;;17.00;100.00
19553;BME280;9420;50.876;7.012;2023-02-19T11:04:13;101937.00;;;17.18;100.00
19553;BME280;9420;50.876;7.012;2023-02-19T11:06:41;101946.94;;;17.36;100.00
19553;BME280;9420;50.876;7.012;2023-02-19T11:09:26;101938.22;;;17.33;100.00
19553;BME280;9420;50.876;7.012;2023-02-19T11:11:55;101930.88;;;17.39;100.00
19553;BME280;9420;50.876;7.012;2023-02-19T11:14:26;101920.13;;;17.66;100.00
19553;BME280;9420;50.876;7.012;2023-02-19T11:16:58;101937.06;;;17.40;100.00
19553;BME280;9420;50.876;7.012;2023-02-19T11:19:34;101924.00;;;17.79;100.00
19553;BME280;9420;50.876;7.012;2023-02-19T11:22:19;101933.09;;;18.58;100.00
19553;BME280;9420;50.876;7.012;2023-02-19T11:24:49;101943.69;;;17.75;100.00
19553;BME280;9420;50.876;7.012;2023-02-19T11:27:21;101936.25;;;18.26;100.00
19553;BME280;9420;50.876;7.012;2023-02-19T11:29:49;101942.34;;;18.08;100.00
19553;BME280;9420;50.876;7.012;2023-02-19T11:32:25;101940.34;;;17.91;100.00
19553;BME280;9420;50.876;7.012;2023-02-19T11:35:14;101954.22;;;17.99;100.00
19553;BME280;9420;50.876;7.012;2023-02-19T11:37:55;101945.66;;;17.93;100.00
19553;BME280;9420;50.876;7.012;2023-02-19T11:40:33;101940.59;;;18.70;100.00
19553;BME280;9420;50.876;7.012;2023-02-19T11:43:16;101938.09;;;19.25;100.00
19553;BME280;9420;50.876;7.012;2023-02-19T11:45:56;101929.25;;;19.04;100.00
19553;BME280;9420;50.876;7.012;2023-02-19T11:48:51;101930.31;;;17.98;100.00
19553;BME280;9420;50.876;7.012;2023-02-19T11:51:48;101939.00;;;17.81;100.00
19553;BME280;9420;50.876;7.012;2023-02-19T11:54:39;101939.38;;;17.94;100.00
19553;BME280;9420;50.876;7.012;2023-02-19T11:57:23;101936.19;;;17.39;100.00
19553;BME280;9420;50.876;7.012;2023-02-19T12:00:09;101944.31;;;17.13;100.00
19553;BME280;9420;50.876;7.012;2023-02-19T12:03:21;101941.34;;;17.89;100.00
19553;BME280;9420;50.876;7.012;2023-02-19T12:06:18;101938.38;;;17.75;100.00
19553;BME280;9420;50.876;7.012;2023-02-19T12:09:13;101933.88;;;17.54;100.00
19553;BME280;9420;50.876;7.012;2023-02-19T12:12:10;101926.38;;;17.86;100.00
19553;BME280;9420;50.876;7.012;2023-02-19T12:18:16;101919.66;;;18.19;100.00
19553;BME280;9420;50.876;7.012;2023-02-19T12:24:17;101912.34;;;18.65;100.00
19553;BME280;9420;50.876;7.012;2023-02-19T12:27:01;101911.22;;;18.50;100.00
19553;BME280;9420;50.876;7.012;2023-02-19T12:29:51;101911.50;;;19.42;100.00
19553;BME280;9420;50.876;7.012;2023-02-19T12:32:40;101917.09;;;19.92;100.00
19553;BME280;9420;50.876;7.012;2023-02-19T12:35:27;101918.59;;;20.33;99.58
19553;BME280;9420;50.876;7.012;2023-02-19T12:38:14;101898.41;;;23.35;83.29
19553;BME280;9420;50.876;7.012;2023-02-19T12:41:12;101899.84;;;23.81;80.20
19553;BME280;9420;50.876;7.012;2023-02-19T12:43:51;101904.22;;;22.71;81.64
19553;BME280;9420;50.876;7.012;2023-02-19T12:46:26;101911.03;;;21.87;84.30
19553;BME280;9420;50.876;7.012;2023-02-19T12:49:01;101918.28;;;21.70;84.39
19553;BME280;9420;50.876;7.012;2023-02-19T12:51:40;101918.34;;;20.54;89.14
19553;BME280;9420;50.876;7.012;2023-02-19T12:54:16;101916.00;;;21.15;89.96
19553;BME280;9420;50.876;7.012;2023-02-19T12:56:54;101910.28;;;22.74;75.77
19553;BME280;9420;50.876;7.012;2023-02-19T12:59:30;101934.66;;;21.17;83.42
19553;BME280;9420;50.876;7.012;2023-02-19T13:02:08;101925.84;;;21.15;88.37
19553;BME280;9420;50.876;7.012;2023-02-19T13:04:46;101914.09;;;21.33;87.55
19553;BME280;9420;50.876;7.012;2023-02-19T13:07:21;101923.69;;;20.54;91.16
19553;BME280;9420;50.876;7.012;2023-02-19T13:09:54;101930.25;;;19.77;95.30
19553;BME280;9420;50.876;7.012;2023-02-19T13:12:29;101930.72;;;19.50;99.69
19553;BME280;9420;50.876;7.012;2023-02-19T13:15:03;101952.03;;;18.92;100.00
19553;BME280;9420;50.876;7.012;2023-02-19T13:17:37;101954.72;;;18.92;100.00
19553;BME280;9420;50.876;7.012;2023-02-19T13:20:24;101960.53;;;18.40;100.00
19553;BME280;9420;50.876;7.012;2023-02-19T13:23:01;101967.06;;;17.90;100.00
19553;BME280;9420;50.876;7.012;2023-02-19T13:26:14;101963.34;;;17.72;100.00